Time;durP1;ratioP1;P1;durP2;ratioP2;P2;SDS_P1;SDS_P2;PMS_P1;PMS_P2;Temp;Humidity;BMP_temperature;BMP_pressure;BME280_temperature;BME280_humidity;BME280_pressure;Samples;Min_cycle;Max_cycle;Signal;HPM_P1;HPM_P2
2022/09/03 00:01:38;;;;;;;6.72;3.08;;;;;;;14.89;57.25;100941.34;5031396;28;20120;-85
2022/09/03 00:04:16;;;;;;;7.72;3.10;;;;;;;14.87;56.55;100940.81;5031355;28;20033;-85
2022/09/03 00:06:48;;;;;;;5.47;3.30;;;;;;;14.90;57.02;100945.66;5031823;28;20026;-85
2022/09/03 00:09:23;;;;;;;4.93;3.28;;;;;;;14.78;56.77;100943.34;5031535;28;20029;-85
2022/09/03 00:12:01;;;;;;;4.20;3.10;;;;;;;14.81;56.49;100950.03;5030834;28;20025;-85
2022/09/03 00:14:44;;;;;;;11.27;3.25;;;;;;;14.79;56.88;100952.25;5031497;28;20063;-84
2022/09/03 00:17:15;;;;;;;6.55;3.10;;;;;;;14.73;57.07;100937.19;5031239;28;20564;-85
2022/09/03 00:19:51;;;;;;;6.55;3.00;;;;;;;14.75;56.84;100937.72;5031090;28;20025;-84
2022/09/03 00:22:26;;;;;;;4.97;3.00;;;;;;;14.71;57.32;100944.75;5031452;28;20032;-85
2022/09/03 00:24:51;;;;;;;4.80;2.90;;;;;;;14.55;57.40;100923.28;5030941;28;20330;-85
2022/09/03 00:27:21;;;;;;;6.82;3.10;;;;;;;14.63;57.53;100948.81;5030566;28;20017;-85
2022/09/03 00:29:52;;;;;;;13.15;3.30;;;;;;;14.63;57.42;100943.44;5030718;28;20112;-85
2022/09/03 00:32:26;;;;;;;5.65;2.88;;;;;;;14.57;57.90;100934.59;5029600;28;20432;-85
2022/09/03 00:34:59;;;;;;;6.60;2.90;;;;;;;14.55;57.73;100942.16;5030481;28;20029;-84
2022/09/03 00:37:27;;;;;;;11.23;2.83;;;;;;;14.41;57.76;100935.78;5030964;28;20045;-85
2022/09/03 00:39:55;;;;;;;3.43;2.70;;;;;;;14.39;58.31;100938.75;5030212;28;20167;-84
2022/09/03 00:42:38;;;;;;;4.33;3.00;;;;;;;14.39;57.96;100938.75;5031055;28;20315;-85
2022/09/03 00:45:33;;;;;;;4.82;3.15;;;;;;;14.33;57.46;100943.38;5030491;28;20021;-85
2022/09/03 00:48:21;;;;;;;8.00;2.63;;;;;;;14.25;58.07;100941.25;5030915;28;20028;-85
2022/09/03 00:51:01;;;;;;;6.18;2.80;;;;;;;14.22;58.98;100953.41;5028627;28;20538;-84
2022/09/03 00:53:36;;;;;;;7.38;2.80;;;;;;;14.12;58.95;100936.50;5031094;28;20017;-84
2022/09/03 00:56:27;;;;;;;6.75;2.95;;;;;;;14.12;58.88;100942.72;5030494;28;20440;-85
2022/09/03 00:59:18;;;;;;;4.03;2.65;;;;;;;14.12;58.35;100947.28;5030357;28;20029;-85
2022/09/03 01:02:04;;;;;;;8.73;2.80;;;;;;;14.07;58.82;100931.97;5028180;28;20556;-85
2022/09/03 01:04:55;;;;;;;5.40;2.65;;;;;;;14.11;59.09;100943.78;5029499;28;20029;-85
2022/09/03 01:07:30;;;;;;;5.33;2.33;;;;;;;14.10;58.95;100936.78;5030238;28;20033;-85
2022/09/03 01:10:04;;;;;;;5.57;2.87;;;;;;;14.08;59.12;100942.44;5029587;28;20287;-85
2022/09/03 01:12:59;;;;;;;6.78;2.70;;;;;;;14.06;58.80;100936.53;5030225;28;20362;-85
2022/09/03 01:15:39;;;;;;;6.90;2.50;;;;;;;14.06;59.21;100938.44;5031004;28;20036;-85
2022/09/03 01:18:22;;;;;;;4.60;2.80;;;;;;;14.05;59.42;100937.63;5030061;28;20067;-85
2022/09/03 01:21:03;;;;;;;8.45;2.70;;;;;;;14.03;59.04;100936.28;5030030;28;20083;-85
2022/09/03 01:23:47;;;;;;;4.20;2.45;;;;;;;13.91;59.64;100923.16;5029989;28;20026;-85
2022/09/03 01:26:18;;;;;;;9.77;2.42;;;;;;;13.96;59.74;100941.97;5030425;28;20079;-85
2022/09/03 01:29:07;;;;;;;7.20;2.50;;;;;;;13.91;60.22;100932.06;5028576;28;20428;-85
2022/09/03 01:31:50;;;;;;;5.78;2.95;;;;;;;13.88;60.22;100932.59;5028880;28;20440;-85
2022/09/03 01:34:24;;;;;;;7.53;2.57;;;;;;;13.83;60.11;100937.22;5030137;28;20525;-85
2022/09/03 01:36:52;;;;;;;4.53;2.77;;;;;;;13.83;60.62;100942.59;5030050;28;20363;-85
2022/09/03 01:39:31;;;;;;;6.50;2.60;;;;;;;13.81;60.22;100936.69;5029742;28;20021;-85
2022/09/03 01:42:15;;;;;;;5.05;2.88;;;;;;;13.81;60.85;100936.69;5029676;28;20033;-84
2022/09/03 01:44:52;;;;;;;6.50;2.80;;;;;;;13.81;60.55;100936.69;5030035;28;20038;-85
2022/09/03 01:47:31;;;;;;;8.80;2.90;;;;;;;13.75;60.68;100930.53;5029765;28;20021;-85
2022/09/03 01:50:07;;;;;;;4.18;2.60;;;;;;;13.80;60.61;100935.06;5027874;28;20021;-85
2022/09/03 01:52:44;;;;;;;7.55;2.72;;;;;;;13.81;60.55;100936.69;5030140;28;20029;-84
2022/09/03 01:55:33;;;;;;;8.60;2.83;;;;;;;13.80;60.26;100935.84;5028332;28;20029;-85
2022/09/03 01:58:06;;;;;;;4.95;2.80;;;;;;;13.78;60.98;100943.44;5029879;28;20025;-85
2022/09/03 02:00:36;;;;;;;2.97;2.43;;;;;;;13.76;60.86;100934.81;5029245;28;20044;-85
2022/09/03 02:03:06;;;;;;;5.03;2.40;;;;;;;13.80;60.62;100935.06;5029781;28;20296;-85
2022/09/03 02:05:31;;;;;;;4.93;2.50;;;;;;;13.84;60.55;100934.22;5029729;28;20056;-85
2022/09/03 02:08:01;;;;;;;6.88;2.60;;;;;;;13.88;60.74;100929.09;5029548;28;20057;-85
2022/09/03 02:10:32;;;;;;;3.67;2.40;;;;;;;13.85;60.39;100927.75;5029046;28;20028;-85
2022/09/03 02:13:09;;;;;;;4.43;2.60;;;;;;;13.83;59.99;100931.81;5029612;28;20386;-85
2022/09/03 02:15:37;;;;;;;4.20;2.65;;;;;;;13.79;60.49;100918.09;5029734;28;20037;-85
2022/09/03 02:18:07;;;;;;;3.42;2.17;;;;;;;13.82;60.07;100932.91;5029401;28;20113;-85
2022/09/03 02:20:32;;;;;;;3.50;2.40;;;;;;;13.80;60.57;100943.16;5029395;28;20450;-85
2022/09/03 02:22:58;;;;;;;3.23;2.50;;;;;;;13.72;60.42;100929.16;5029128;28;20053;-85
2022/09/03 02:25:31;;;;;;;5.97;2.45;;;;;;;13.69;60.58;100929.75;5029949;28;20444;-85
2022/09/03 02:30:32;;;;;;;6.47;2.30;;;;;;;13.65;60.61;100917.09;5053690;23;20305;-85
2022/09/03 02:32:58;;;;;;;3.85;2.50;;;;;;;13.61;60.68;100922.22;5008743;28;20026;-85
2022/09/03 02:35:23;;;;;;;7.70;2.33;;;;;;;13.62;60.66;100913.06;5009801;28;20497;-85
2022/09/03 02:37:49;;;;;;;5.30;2.40;;;;;;;13.64;60.96;100924.38;5009388;28;20030;-85
2022/09/03 02:40:14;;;;;;;4.83;2.40;;;;;;;13.67;60.53;100933.78;4991933;28;20057;-84
2022/09/03 02:42:40;;;;;;;5.75;2.20;;;;;;;13.61;60.92;100935.69;5008606;28;20037;-84
2022/09/03 02:45:12;;;;;;;4.23;2.00;;;;;;;13.60;60.97;100931.38;4991673;28;20026;-85
2022/09/03 02:47:42;;;;;;;5.90;2.30;;;;;;;13.59;60.95;100927.06;4991897;28;20269;-85
2022/09/03 02:50:09;;;;;;;5.10;2.20;;;;;;;13.52;61.35;100916.59;4992526;28;20033;-85
2022/09/03 02:52:34;;;;;;;3.53;2.22;;;;;;;13.56;60.86;100924.94;5013152;28;20496;-85
2022/09/03 02:54:59;;;;;;;5.00;2.20;;;;;;;13.46;61.10;100912.31;5013022;28;20025;-85
2022/09/03 02:57:25;;;;;;;2.40;2.10;;;;;;;13.52;61.44;100927.38;5013162;28;20042;-85
2022/09/03 02:59:50;;;;;;;5.93;2.20;;;;;;;13.50;61.13;100923.34;4994686;28;20024;-85
2022/09/03 03:02:15;;;;;;;3.77;2.20;;;;;;;13.50;61.42;100934.13;5013137;28;20092;-85
2022/09/03 03:04:40;;;;;;;7.83;2.50;;;;;;;13.44;61.64;100911.78;5013233;28;20024;-84
2022/09/03 03:07:06;;;;;;;6.17;2.20;;;;;;;13.47;61.51;100924.69;5012783;28;20033;-85
2022/09/03 03:09:31;;;;;;;5.10;2.20;;;;;;;13.45;61.68;100922.28;5012860;28;20022;-85
2022/09/03 03:11:57;;;;;;;4.03;2.20;;;;;;;13.45;61.76;100930.38;5012199;28;20022;-85
2022/09/03 03:14:22;;;;;;;2.63;1.87;;;;;;;13.43;61.56;100920.94;5012777;28;20388;-85
2022/09/03 03:16:48;;;;;;;4.13;1.97;;;;;;;13.47;61.71;100917.44;5012569;28;20071;-85
2022/09/03 03:19:14;;;;;;;6.50;2.08;;;;;;;13.40;61.88;100916.09;5012321;28;20379;-85
2022/09/03 03:21:39;;;;;;;4.87;2.53;;;;;;;13.41;61.89;100923.91;5012382;28;20057;-85
2022/09/03 03:24:05;;;;;;;3.30;2.05;;;;;;;13.31;61.73;100905.88;5012494;28;20135;-85
2022/09/03 03:26:31;;;;;;;6.13;2.03;;;;;;;13.37;61.86;100930.88;5012490;28;20022;-85
2022/09/03 03:28:59;;;;;;;3.33;1.98;;;;;;;13.39;61.75;100928.72;5012412;28;20109;-85
2022/09/03 03:31:26;;;;;;;5.60;2.10;;;;;;;13.38;62.10;100929.81;5011806;28;20108;-86
2022/09/03 03:33:57;;;;;;;4.47;1.70;;;;;;;13.33;61.90;100929.81;4994596;28;20034;-85
2022/09/03 03:36:25;;;;;;;3.30;1.80;;;;;;;13.33;62.46;100936.03;5012344;28;20284;-85
2022/09/03 03:38:55;;;;;;;3.78;2.03;;;;;;;13.34;62.03;100934.13;5012086;28;20025;-85
2022/09/03 03:41:27;;;;;;;4.93;2.28;;;;;;;13.29;62.25;100931.47;5012026;28;20034;-85
2022/09/03 03:43:57;;;;;;;4.47;1.80;;;;;;;13.17;62.37;100918.31;4994294;28;20435;-85
2022/09/03 03:46:24;;;;;;;4.40;2.00;;;;;;;13.21;62.43;100930.13;5011808;28;20029;-85
2022/09/03 03:48:51;;;;;;;3.80;2.20;;;;;;;13.20;62.19;100927.69;5011684;28;20497;-85
2022/09/03 03:51:17;;;;;;;4.72;2.08;;;;;;;13.21;62.37;100923.94;5011589;28;20030;-85
2022/09/03 03:53:43;;;;;;;4.10;1.90;;;;;;;13.18;62.67;100925.28;5012230;28;20026;-85
2022/09/03 03:56:13;;;;;;;3.58;2.03;;;;;;;13.19;62.45;100921.53;4993925;28;20497;-85
2022/09/03 03:58:42;;;;;;;3.60;2.10;;;;;;;13.24;62.53;100931.47;5011707;28;20026;-85
2022/09/03 04:01:14;;;;;;;6.60;2.00;;;;;;;13.24;62.50;100918.81;5011198;28;20313;-85
2022/09/03 04:03:40;;;;;;;3.72;1.92;;;;;;;13.27;62.22;100917.47;5011766;28;20034;-84
2022/09/03 04:06:09;;;;;;;2.95;1.80;;;;;;;13.36;62.27;100921.19;5012325;28;20105;-84
2022/09/03 04:08:37;;;;;;;6.13;2.00;;;;;;;13.39;62.20;100915.28;5011459;28;20504;-84
2022/09/03 04:11:05;;;;;;;4.38;2.00;;;;;;;13.46;62.02;100921.22;5010917;28;20087;-84
2022/09/03 04:13:39;;;;;;;2.65;2.10;;;;;;;13.46;61.77;100923.91;5011390;28;20551;-84
2022/09/03 04:16:08;;;;;;;3.72;1.48;;;;;;;13.48;61.88;100923.63;5011208;28;20141;-84
2022/09/03 04:18:34;;;;;;;5.88;2.00;;;;;;;13.52;61.63;100923.88;5011238;28;20114;-84
2022/09/03 04:21:03;;;;;;;7.70;2.00;;;;;;;13.47;61.77;100922.00;5010841;28;20109;-85
2022/09/03 04:23:29;;;;;;;2.40;1.77;;;;;;;13.45;61.81;100918.78;4993594;28;20026;-84
2022/09/03 04:25:54;;;;;;;2.90;1.73;;;;;;;13.39;62.06;100909.09;5011075;28;20052;-84
2022/09/03 04:28:21;;;;;;;4.10;2.37;;;;;;;13.38;62.13;100915.56;5010884;28;20573;-84
2022/09/03 04:30:46;;;;;;;2.65;1.95;;;;;;;13.37;62.25;100911.25;5010913;28;20018;-84
2022/09/03 04:33:12;;;;;;;4.23;1.77;;;;;;;13.41;62.09;100915.84;5010711;28;20036;-84
2022/09/03 04:35:37;;;;;;;3.47;1.77;;;;;;;13.39;62.57;100919.88;5011232;28;20030;-84
2022/09/03 04:38:03;;;;;;;5.40;1.70;;;;;;;13.29;62.55;100909.94;5010755;28;20491;-84
2022/09/03 04:40:28;;;;;;;4.53;1.85;;;;;;;13.26;62.93;100919.34;5010368;28;20022;-84
2022/09/03 04:43:00;;;;;;;2.60;1.80;;;;;;;13.18;62.74;100909.16;5010757;28;20053;-84
2022/09/03 04:45:27;;;;;;;4.40;1.90;;;;;;;13.20;63.21;100922.31;5010864;28;20041;-84
2022/09/03 04:48:02;;;;;;;4.05;1.90;;;;;;;13.19;63.26;100918.84;5010679;28;20060;-85
2022/09/03 04:50:28;;;;;;;3.70;1.80;;;;;;;13.21;63.13;100921.25;5010356;28;20029;-84
2022/09/03 04:52:58;;;;;;;5.03;2.20;;;;;;;13.22;63.46;100922.84;5010663;28;20752;-84
2022/09/03 04:55:24;;;;;;;4.18;2.15;;;;;;;13.18;63.16;100922.59;4993070;28;20062;-85
2022/09/03 04:57:49;;;;;;;3.47;1.80;;;;;;;13.12;63.21;100913.75;5010636;28;20478;-85
2022/09/03 05:00:17;;;;;;;4.97;1.90;;;;;;;13.18;63.40;100923.41;4992279;28;20092;-85
2022/09/03 05:02:45;;;;;;;5.28;2.10;;;;;;;13.13;63.29;100909.97;5010512;28;20124;-84
2022/09/03 05:05:10;;;;;;;8.27;1.90;;;;;;;13.16;63.89;100924.75;5010262;28;20053;-85
2022/09/03 05:07:37;;;;;;;4.80;1.73;;;;;;;13.16;63.73;100922.88;5010747;28;20050;-84
2022/09/03 05:10:07;;;;;;;5.30;1.90;;;;;;;13.14;63.49;100919.66;5009867;28;20542;-84
2022/09/03 05:12:33;;;;;;;3.55;1.70;;;;;;;13.20;63.53;100922.31;5010143;28;20060;-84
2022/09/03 05:14:59;;;;;;;5.30;2.00;;;;;;;13.18;63.61;100925.28;5010223;28;20493;-85
2022/09/03 05:17:25;;;;;;;6.33;1.47;;;;;;;13.21;63.57;100919.38;4992620;28;20444;-85
2022/09/03 05:19:51;;;;;;;2.35;1.80;;;;;;;13.23;63.54;100927.16;5009825;28;20033;-84
2022/09/03 05:22:20;;;;;;;5.80;2.03;;;;;;;13.15;63.55;100915.06;5010346;28;20018;-84
2022/09/03 05:24:46;;;;;;;6.40;1.70;;;;;;;13.34;63.38;100931.44;5010501;28;20026;-84
2022/09/03 05:27:11;;;;;;;5.53;1.80;;;;;;;13.35;63.31;100916.88;5010109;28;20311;-85
2022/09/03 05:29:38;;;;;;;3.30;1.80;;;;;;;13.37;62.90;100912.03;5010261;28;20485;-85
2022/09/03 05:32:03;;;;;;;3.83;1.70;;;;;;;13.42;62.93;100917.44;5009233;28;20046;-85
2022/09/03 05:34:28;;;;;;;3.03;1.60;;;;;;;13.43;62.72;100913.69;5010136;28;20288;-85
2022/09/03 05:36:57;;;;;;;3.83;2.00;;;;;;;13.54;62.88;100924.41;5009913;28;20123;-84
2022/09/03 05:39:22;;;;;;;8.00;2.20;;;;;;;13.57;62.93;100923.84;4992653;28;20033;-85
2022/09/03 05:41:49;;;;;;;6.57;1.93;;;;;;;13.58;62.79;100914.69;5009674;28;20029;-85
2022/09/03 05:44:14;;;;;;;8.02;1.90;;;;;;;13.57;62.79;100918.47;5010182;28;20053;-85
2022/09/03 05:46:40;;;;;;;5.57;2.00;;;;;;;13.62;62.33;100908.47;5010099;28;20385;-84
2022/09/03 05:49:06;;;;;;;3.97;2.10;;;;;;;13.73;62.80;100924.59;5009569;28;20018;-85
2022/09/03 05:51:33;;;;;;;8.38;2.40;;;;;;;13.71;62.16;100918.69;5009782;28;20026;-85
2022/09/03 05:53:59;;;;;;;3.70;2.33;;;;;;;13.79;62.24;100918.09;4991918;28;20413;-85
2022/09/03 05:56:27;;;;;;;2.93;2.37;;;;;;;13.97;62.22;100923.94;5010282;28;20030;-85
2022/09/03 05:58:55;;;;;;;5.68;2.22;;;;;;;14.02;62.16;100921.22;5009420;28;20022;-84
2022/09/03 06:01:26;;;;;;;5.43;2.47;;;;;;;14.17;61.10;100917.63;5009799;28;20145;-85
2022/09/03 06:03:57;;;;;;;6.80;2.63;;;;;;;14.33;61.20;100910.25;5009608;28;20478;-84
2022/09/03 06:06:26;;;;;;;4.82;2.55;;;;;;;14.54;60.08;100916.28;5010083;28;20026;-85
2022/09/03 06:08:53;;;;;;;10.52;2.58;;;;;;;14.76;59.87;100923.91;5009501;28;20092;-85
2022/09/03 06:11:20;;;;;;;8.00;3.00;;;;;;;14.98;59.29;100923.44;5009484;28;20029;-85
2022/09/03 06:13:46;;;;;;;4.78;2.55;;;;;;;15.20;58.72;100922.13;5009878;28;20018;-84
2022/09/03 06:16:12;;;;;;;10.73;3.33;;;;;;;15.33;57.82;100922.56;5009484;28;20040;-85
2022/09/03 06:18:37;;;;;;;5.90;2.78;;;;;;;15.53;57.54;100929.63;5009961;28;20060;-85
2022/09/03 06:21:05;;;;;;;6.23;3.10;;;;;;;15.65;57.19;100921.88;5008967;28;20030;-85
2022/09/03 06:23:31;;;;;;;6.65;2.70;;;;;;;15.82;56.92;100926.81;5009881;28;20026;-85
2022/09/03 06:26:09;;;;;;;9.48;2.80;;;;;;;15.96;57.54;100936.91;5011825;28;20112;-85
2022/09/03 06:28:36;;;;;;;11.02;2.67;;;;;;;16.05;56.66;100930.56;5013297;28;20029;-85
2022/09/03 06:31:04;;;;;;;11.38;3.05;;;;;;;16.20;56.14;100934.13;5012842;28;20029;-85
2022/09/03 06:33:31;;;;;;;6.95;2.75;;;;;;;16.29;55.93;100931.56;5013496;28;20029;-85
2022/09/03 06:35:58;;;;;;;8.80;2.85;;;;;;;16.41;55.70;100936.53;5013051;28;20073;-85
2022/09/03 06:38:26;;;;;;;7.30;3.15;;;;;;;16.50;55.49;100932.88;5013311;28;20041;-85
2022/09/03 06:40:56;;;;;;;7.20;2.97;;;;;;;16.54;54.79;100910.66;5012453;28;20022;-85
2022/09/03 06:43:22;;;;;;;6.20;3.00;;;;;;;16.86;54.84;100934.19;5013296;28;20025;-85
2022/09/03 06:46:12;;;;;;;7.83;3.70;;;;;;;16.94;54.64;100924.56;5013153;28;20618;-85
2022/09/03 06:48:39;;;;;;;13.23;3.15;;;;;;;17.13;54.25;100939.97;5013262;28;20030;-85
2022/09/03 06:51:10;;;;;;;9.73;3.15;;;;;;;17.22;53.61;100932.72;5012495;28;20117;-85
2022/09/03 06:53:38;;;;;;;13.05;3.17;;;;;;;17.32;54.33;100943.38;5013096;28;20131;-85
2022/09/03 06:56:10;;;;;;;8.25;3.35;;;;;;;17.47;53.56;100939.56;5012829;28;20030;-85
2022/09/03 06:58:37;;;;;;;8.95;3.47;;;;;;;17.56;52.73;100928.81;5012861;28;20045;-85
2022/09/03 07:01:05;;;;;;;10.88;3.42;;;;;;;17.74;52.39;100942.53;5012284;28;20485;-85
2022/09/03 07:03:31;;;;;;;6.60;3.50;;;;;;;17.88;53.11;100932.50;5012663;28;20040;-85
2022/09/03 07:06:11;;;;;;;11.37;4.60;;;;;;;18.03;52.82;100930.56;5012838;28;20281;-85
2022/09/03 07:08:36;;;;;;;9.82;4.47;;;;;;;18.27;52.11;100933.78;5012810;28;20036;-85
2022/09/03 07:11:07;;;;;;;14.38;5.32;;;;;;;18.42;51.40;100935.34;5012296;28;20116;-85
2022/09/03 07:13:33;;;;;;;16.93;6.47;;;;;;;18.53;49.80;100935.09;5012606;28;20121;-85
2022/09/03 07:16:00;;;;;;;16.90;6.20;;;;;;;18.52;49.35;100934.28;5012510;28;20827;-85
2022/09/03 07:18:26;;;;;;;21.58;7.30;;;;;;;18.50;49.25;100936.50;5012233;28;20137;-85
2022/09/03 07:20:51;;;;;;;13.77;6.70;;;;;;;18.53;49.06;100935.09;5012015;28;20113;-85
2022/09/03 07:23:17;;;;;;;19.83;6.40;;;;;;;18.56;49.17;100935.28;5012509;28;20137;-85
2022/09/03 07:25:42;;;;;;;13.93;6.20;;;;;;;18.56;49.31;100939.88;5012755;28;20449;-85
2022/09/03 07:28:08;;;;;;;14.13;6.10;;;;;;;18.53;49.51;100941.31;5012205;28;20508;-85
2022/09/03 07:30:33;;;;;;;17.33;7.07;;;;;;;18.50;49.58;100941.94;5011818;28;20033;-85
2022/09/03 07:33:01;;;;;;;14.50;6.20;;;;;;;18.42;49.51;100943.47;5011839;28;20032;-85
2022/09/03 07:35:27;;;;;;;15.57;5.72;;;;;;;18.34;50.04;100927.97;4994156;28;20397;-85
2022/09/03 07:37:53;;;;;;;17.60;5.60;;;;;;;18.43;50.46;100941.59;4994430;28;20121;-85
2022/09/03 07:40:19;;;;;;;12.50;5.50;;;;;;;18.45;50.01;100945.59;4993630;28;20022;-85
2022/09/03 07:42:47;;;;;;;13.45;5.45;;;;;;;18.48;50.30;100943.38;5012163;28;20022;-85
2022/09/03 07:45:12;;;;;;;11.10;3.90;;;;;;;18.54;49.80;100953.78;5012105;28;20053;-86
2022/09/03 07:47:45;;;;;;;9.13;3.63;;;;;;;18.54;49.67;100942.94;4994471;28;20308;-85
2022/09/03 07:50:10;;;;;;;8.35;3.85;;;;;;;18.64;49.43;100946.47;5011474;28;20033;-85
2022/09/03 07:52:36;;;;;;;10.93;4.10;;;;;;;18.53;49.62;100938.59;5012157;28;20025;-85
2022/09/03 07:55:03;;;;;;;10.60;3.93;;;;;;;18.61;49.72;100948.72;4993898;28;20030;-85
2022/09/03 07:57:28;;;;;;;9.25;3.22;;;;;;;18.62;48.80;100944.88;5012191;28;20033;-85
2022/09/03 07:59:54;;;;;;;9.20;3.00;;;;;;;18.73;49.35;100955.50;5011333;28;20103;-85
2022/09/03 08:02:19;;;;;;;8.30;3.10;;;;;;;18.78;48.55;100952.66;5011753;28;20807;-85
2022/09/03 08:04:44;;;;;;;7.17;3.10;;;;;;;18.82;48.95;100950.91;5012174;28;20026;-85
2022/09/03 08:07:10;;;;;;;5.70;2.50;;;;;;;18.92;49.11;100952.56;5011318;28;20477;-85
2022/09/03 08:09:35;;;;;;;5.07;2.40;;;;;;;18.99;48.56;100941.31;5011838;28;20030;-85
2022/09/03 08:12:00;;;;;;;11.30;2.40;;;;;;;19.19;48.75;100951.59;5010625;28;20101;-86
2022/09/03 08:14:26;;;;;;;8.80;2.47;;;;;;;19.34;48.53;100953.09;5012030;28;20030;-86
2022/09/03 08:16:51;;;;;;;5.83;2.40;;;;;;;19.44;47.82;100957.44;5011466;28;20426;-87
2022/09/03 08:19:17;;;;;;;6.63;2.50;;;;;;;19.52;48.00;100959.41;5011860;28;20029;-87
2022/09/03 08:21:43;;;;;;;6.72;2.22;;;;;;;19.55;47.75;100949.00;5011517;28;20509;-86
2022/09/03 08:24:10;;;;;;;4.25;2.08;;;;;;;19.61;48.04;100951.28;5011385;28;20065;-87
2022/09/03 08:26:39;;;;;;;4.87;1.67;;;;;;;19.77;47.30;100958.97;5011487;28;20022;-86
2022/09/03 08:29:05;;;;;;;10.15;2.13;;;;;;;19.85;47.43;100943.78;5011432;28;20102;-87
2022/09/03 08:31:35;;;;;;;5.00;1.85;;;;;;;19.90;46.78;100962.72;5011056;28;20572;-87
2022/09/03 08:34:05;;;;;;;4.93;1.70;;;;;;;19.95;46.37;100959.81;5011003;28;20077;-86
2022/09/03 08:36:32;;;;;;;6.60;1.70;;;;;;;20.00;46.47;100972.44;5011505;28;20049;-86
2022/09/03 08:39:02;;;;;;;4.78;1.70;;;;;;;20.03;46.68;100972.63;5010966;28;20101;-86
2022/09/03 08:41:49;;;;;;;6.18;1.85;;;;;;;20.16;46.67;100976.31;5011078;28;20025;-86
2022/09/03 08:44:47;;;;;;;4.55;1.55;;;;;;;20.23;46.86;100973.91;5011046;28;20486;-87
2022/09/03 08:47:22;;;;;;;5.60;1.60;;;;;;;20.32;46.09;100971.19;5010917;28;20030;-87
2022/09/03 08:49:50;;;;;;;3.60;1.47;;;;;;;20.41;45.66;100972.00;5010418;28;20104;-87
2022/09/03 08:52:48;;;;;;;2.87;1.60;;;;;;;20.50;45.72;100973.91;5011071;28;20288;-87
2022/09/03 08:55:19;;;;;;;4.25;1.55;;;;;;;20.61;45.83;100968.94;5011175;28;20033;-87
2022/09/03 08:58:17;;;;;;;5.05;1.50;;;;;;;20.69;45.56;100968.91;5011099;28;20100;-87
2022/09/03 09:01:30;;;;;;;5.47;1.60;;;;;;;20.82;46.01;100966.34;5010698;28;20565;-86
2022/09/03 09:04:33;;;;;;;8.70;1.70;;;;;;;20.97;45.12;100973.19;4930434;29;20055;-86
2022/09/03 09:07:24;;;;;;;2.53;1.55;;;;;;;21.03;44.56;100967.25;4930824;29;20035;-86
2022/09/03 09:10:20;;;;;;;4.25;1.67;;;;;;;21.11;44.29;100967.56;5001561;28;20076;-86
2022/09/03 09:13:07;;;;;;;6.40;1.52;;;;;;;21.20;44.35;100965.56;5010806;28;20067;-86
2022/09/03 09:16:02;;;;;;;4.32;1.70;;;;;;;21.28;44.21;100963.94;5010639;28;20062;-86
2022/09/03 09:18:50;;;;;;;3.73;1.37;;;;;;;21.43;44.49;100971.59;5010883;28;20018;-86
2022/09/03 09:21:29;;;;;;;5.83;1.50;;;;;;;21.59;44.32;100973.75;5010223;28;20283;-86
2022/09/03 09:23:59;;;;;;;6.97;1.67;;;;;;;21.78;43.33;100965.97;5010336;28;20026;-86
2022/09/03 09:26:24;;;;;;;4.53;1.50;;;;;;;21.90;43.15;100975.34;5010730;28;20026;-86
2022/09/03 09:28:57;;;;;;;6.30;2.00;;;;;;;21.99;42.65;100967.09;5010606;28;20030;-86
2022/09/03 09:31:23;;;;;;;8.38;1.70;;;;;;;22.13;42.87;100978.53;5010041;28;20033;-86
2022/09/03 09:33:51;;;;;;;6.28;1.80;;;;;;;22.27;42.27;100967.34;5010334;28;20026;-86
2022/09/03 09:36:18;;;;;;;4.35;1.70;;;;;;;22.37;41.71;100964.19;5010231;28;20026;-86
2022/09/03 09:38:45;;;;;;;4.43;1.60;;;;;;;22.51;41.06;100963.94;5010364;28;20033;-86
2022/09/03 09:41:14;;;;;;;7.07;1.75;;;;;;;22.59;41.28;100956.81;5009578;28;20052;-86
2022/09/03 09:43:41;;;;;;;4.22;1.80;;;;;;;22.69;41.37;100963.78;5010353;28;20448;-86
2022/09/03 09:46:14;;;;;;;7.88;2.05;;;;;;;22.79;41.08;100959.81;5010110;28;20028;-86
2022/09/03 09:48:48;;;;;;;2.40;1.60;;;;;;;22.92;41.46;100971.56;5010268;28;20072;-86
2022/09/03 09:51:25;;;;;;;6.50;1.80;;;;;;;23.06;41.11;100961.13;5009741;28;20281;-86
2022/09/03 09:54:17;;;;;;;8.48;1.58;;;;;;;23.25;41.06;100971.53;5009883;28;20034;-86
2022/09/03 09:56:45;;;;;;;4.15;1.70;;;;;;;23.37;39.86;100972.66;5010048;28;20018;-86
2022/09/03 09:59:12;;;;;;;8.02;1.83;;;;;;;23.46;39.90;100967.09;5011038;28;20046;-86
2022/09/03 10:01:39;;;;;;;4.38;1.73;;;;;;;23.68;40.35;100968.53;5014046;28;20029;-86
2022/09/03 10:04:11;;;;;;;5.53;1.52;;;;;;;23.80;39.65;100976.75;5013675;28;20041;-87
2022/09/03 10:09:24;;;;;;;6.18;1.85;;;;;;;23.77;39.07;100968.41;5014255;28;20041;-87
2022/09/03 10:12:09;;;;;;;9.10;2.20;;;;;;;23.86;38.93;100971.81;5013582;28;20022;-86
2022/09/03 10:14:46;;;;;;;6.60;1.80;;;;;;;24.02;39.56;100969.16;4996018;28;20030;-86
2022/09/03 10:17:33;;;;;;;3.27;1.80;;;;;;;24.23;39.12;100969.00;5013803;28;20280;-86
2022/09/03 10:20:27;;;;;;;5.55;1.73;;;;;;;24.30;38.13;100963.72;5012892;28;20033;-87
2022/09/03 10:22:59;;;;;;;3.75;1.85;;;;;;;24.30;37.78;100950.03;5013688;28;20113;-86
2022/09/03 10:25:34;;;;;;;4.82;1.80;;;;;;;24.45;37.38;100953.97;5013912;28;20501;-86
2022/09/03 10:28:00;;;;;;;4.45;1.40;;;;;;;24.49;37.42;100956.78;5013618;28;20024;-86
2022/09/03 10:30:28;;;;;;;3.38;1.55;;;;;;;24.57;36.92;100953.09;5012981;28;20489;-87
2022/09/03 10:33:06;;;;;;;5.45;1.70;;;;;;;24.65;37.08;100952.13;5013535;28;20489;-87
2022/09/03 10:35:40;;;;;;;5.28;1.77;;;;;;;24.79;36.00;100945.47;5013755;28;20026;-86
2022/09/03 10:38:29;;;;;;;5.85;1.65;;;;;;;24.89;36.99;100936.72;5013328;28;20026;-87
2022/09/03 10:41:40;;;;;;;4.63;1.60;;;;;;;25.08;36.95;100949.72;5012789;28;20032;-87
2022/09/03 10:44:11;;;;;;;5.40;2.20;;;;;;;25.12;35.98;100949.00;5013543;28;20308;-87
2022/09/03 10:47:06;;;;;;;3.72;2.33;;;;;;;25.07;36.99;100937.19;5013440;28;20021;-87
2022/09/03 10:50:00;;;;;;;5.30;2.20;;;;;;;25.27;36.86;100955.63;5013324;28;20034;-87
2022/09/03 10:52:55;;;;;;;8.65;2.83;;;;;;;25.41;36.73;100950.47;5013643;28;20026;-87
2022/09/03 10:55:40;;;;;;;6.10;2.40;;;;;;;25.49;35.89;100945.97;5013235;28;20029;-87
2022/09/03 10:58:27;;;;;;;8.55;1.92;;;;;;;25.48;35.30;100958.91;5013051;28;20415;-87
2022/09/03 11:01:01;;;;;;;6.20;1.50;;;;;;;25.55;35.09;100950.84;5012040;28;20365;-87
2022/09/03 11:03:44;;;;;;;3.65;1.60;;;;;;;25.61;35.96;100948.63;5013247;28;20113;-87
2022/09/03 11:06:34;;;;;;;6.93;2.00;;;;;;;25.64;35.67;100952.56;5012642;28;20703;-87
2022/09/03 11:09:29;;;;;;;4.20;1.80;;;;;;;25.76;35.31;100955.19;5012987;28;20034;-87
2022/09/03 11:12:00;;;;;;;5.57;1.90;;;;;;;25.76;33.99;100949.69;5011475;28;20308;-87
2022/09/03 11:14:45;;;;;;;4.07;2.33;;;;;;;25.83;34.51;100938.09;5013257;28;20525;-87
2022/09/03 11:17:20;;;;;;;6.03;2.80;;;;;;;26.09;34.94;100953.13;5012409;28;20029;-87
2022/09/03 11:19:55;;;;;;;4.00;2.58;;;;;;;26.07;33.93;100938.97;5012704;28;20041;-87
2022/09/03 11:22:22;;;;;;;7.15;2.67;;;;;;;26.17;33.87;100941.16;5012693;28;20053;-87
2022/09/03 11:24:54;;;;;;;6.38;2.58;;;;;;;26.20;34.31;100945.94;5012771;28;20038;-87
2022/09/03 11:27:30;;;;;;;3.75;2.58;;;;;;;26.13;34.14;100913.63;5012695;28;20045;-87
2022/09/03 11:30:08;;;;;;;5.15;2.97;;;;;;;26.38;34.82;100937.25;5012032;28;20084;-87
2022/09/03 11:32:48;;;;;;;6.82;2.55;;;;;;;26.57;33.68;100941.91;5012107;28;20481;-87
2022/09/03 11:35:27;;;;;;;7.67;3.70;;;;;;;26.56;33.87;100937.56;5012623;28;20049;-87
2022/09/03 11:37:58;;;;;;;9.53;4.00;;;;;;;26.53;33.72;100930.84;5012127;28;20280;-87
2022/09/03 11:40:32;;;;;;;6.47;3.80;;;;;;;26.73;33.32;100928.84;5011973;28;20091;-87
2022/09/03 11:43:27;;;;;;;10.93;3.95;;;;;;;26.75;33.49;100929.28;5011558;28;20080;-87
2022/09/03 11:46:02;;;;;;;10.88;4.20;;;;;;;26.80;33.75;100932.91;5012455;28;20029;-87
2022/09/03 11:48:36;;;;;;;6.88;4.38;;;;;;;26.81;33.87;100927.03;5012394;28;20034;-87
2022/09/03 11:51:01;;;;;;;10.93;4.13;;;;;;;26.93;33.45;100917.81;5012001;28;20022;-87
2022/09/03 11:53:33;;;;;;;10.47;4.37;;;;;;;26.95;33.55;100923.72;5012248;28;20105;-87